Glasgow, Montana
Current Conditions -  °F | °C
As of 5:53 PM on Saturday 22 Nov 2014 (Local Time) from KGGW Reporting Station
Clear Clear  
Wind Chill: 32°   Ceiling: Unl
Heat Index: 41°   Visibility: 10mi
Dew Point: 24°   Wind: 18mph
Humidity: 51%   Direction: 260°W
Pressure: 29.29"   Gusts: NA
Location:  48.2°N, 106.64°W
Report Text: KGGW 230053Z AUTO 26016KT 10SM CLR 05/M04 A2929 RMK AO2 SLP933 T00501044
Loading
Personal Weather Stations






























Interactive Weather Map New forecast layout! Learn more

10-Day Weather Forecast

Advertisements
Track Severe Weather on mobile